LIPK/FRL METAR and TAF weather

Enter ICAO airport designator
Station Type Date Time Source
LIPK METAR 2019/06/26 15:50 UTC NOAA

LIPK 261550Z VRB01KT CAVOK 33/19 Q1020


Station Type Date Time Source
LIPK Decoded METAR 2019/06/26 15:50 UTC NOAA

Forli, Italy (LIPK) 44-12N 012-04E 32M
Jun 26, 2019 - 11:50 AM EDT / 2019.06.26 1550 UTC
Wind: Variable at 1 MPH (1 KT):0
Visibility: greater than 7 mile(s):0
Temperature: 91 F (33 C)
Dew Point: 66 F (19 C)
Relative Humidity: 43%
Pressure (altimeter): 30.12 in. Hg (1020 hPa)
ob: LIPK 261550Z VRB01KT CAVOK 33/19 Q1020
cycle: 16

Station Type Date Time Source
LIPK TAF 2015/04/01 12:08 UTC NOAA

TAF LIPK 011301Z 0112/0212 30020G32KT CAVOK
BECMG 0115/0117 30012KT
BECMG 0117/0119 VRB05KT

Example: see airport list